createdAt,value
2023-03-27T00:00:24.898Z,1.88
2023-03-27T00:01:24.925Z,4.46
2023-03-27T00:02:24.946Z,4.14
2023-03-27T00:03:24.945Z,4.14
2023-03-27T00:04:24.862Z,2.85
2023-03-27T00:05:24.846Z,4.14
2023-03-27T00:06:25.268Z,4.14
2023-03-27T00:07:24.829Z,6.40
2023-03-27T00:08:24.831Z,3.82
2023-03-27T00:09:24.797Z,0.92
2023-03-27T00:10:24.797Z,6.40
2023-03-27T00:11:24.870Z,6.72
2023-03-27T00:12:24.778Z,4.14
2023-03-27T00:13:24.756Z,4.14
2023-03-27T00:14:24.767Z,6.40
2023-03-27T00:15:24.740Z,4.46
2023-03-27T00:16:24.819Z,3.82
2023-03-27T00:17:24.724Z,6.40
2023-03-27T00:18:24.708Z,2.53
2023-03-27T00:19:24.696Z,4.14
2023-03-27T00:20:24.693Z,4.79
2023-03-27T00:21:24.742Z,-0.69
2023-03-27T00:22:24.678Z,4.14
2023-03-27T00:23:24.696Z,4.46
2023-03-27T00:24:24.656Z,4.14
2023-03-27T00:25:24.642Z,8.97
2023-03-27T00:26:24.662Z,4.14
2023-03-27T00:27:24.614Z,3.50
2023-03-27T00:28:24.609Z,5.43
2023-03-27T00:29:24.598Z,1.56
2023-03-27T00:30:24.594Z,8.01
2023-03-27T00:31:24.689Z,4.14
2023-03-27T00:32:24.582Z,4.14
2023-03-27T00:33:24.557Z,3.82
2023-03-27T00:34:24.547Z,1.56
2023-03-27T00:35:24.577Z,4.14
2023-03-27T00:36:24.564Z,4.46
2023-03-27T00:37:24.511Z,3.50
2023-03-27T00:38:24.574Z,3.82
2023-03-27T00:39:24.488Z,-0.05
2023-03-27T00:40:24.485Z,3.50
2023-03-27T00:41:24.495Z,3.17
2023-03-27T00:42:24.476Z,4.79
2023-03-27T00:43:24.490Z,4.46
2023-03-27T00:44:24.451Z,4.14
2023-03-27T00:45:24.435Z,6.72
2023-03-27T00:46:24.509Z,7.36
2023-03-27T00:47:24.451Z,-1.02
2023-03-27T00:48:24.405Z,6.07
2023-03-27T00:49:24.391Z,3.50
2023-03-27T00:50:24.382Z,3.50
2023-03-27T00:51:24.412Z,4.14
2023-03-27T00:52:24.367Z,3.82
2023-03-27T00:53:24.348Z,3.50
2023-03-27T00:54:24.343Z,-0.69
2023-03-27T00:55:24.332Z,3.82
2023-03-27T00:56:24.343Z,2.53
2023-03-27T00:57:24.306Z,1.88
2023-03-27T00:58:24.300Z,3.50
2023-03-27T00:59:24.284Z,4.14
2023-03-27T01:00:24.280Z,6.07
2023-03-27T01:01:24.320Z,4.46
2023-03-27T01:02:24.295Z,4.46
2023-03-27T01:03:24.327Z,2.21
2023-03-27T01:04:24.237Z,4.14
2023-03-27T01:05:24.227Z,3.17
2023-03-27T01:06:24.263Z,3.17
2023-03-27T01:07:24.201Z,3.82
2023-03-27T01:08:24.196Z,5.11
2023-03-27T01:09:24.203Z,3.82
2023-03-27T01:10:24.172Z,8.01
2023-03-27T01:11:24.157Z,-1.02
2023-03-27T01:12:24.160Z,1.88
2023-03-27T01:13:24.157Z,4.46
2023-03-27T01:14:24.175Z,5.11
2023-03-27T01:15:24.130Z,3.50
2023-03-27T01:16:24.137Z,2.21
2023-03-27T01:17:24.114Z,3.50
2023-03-27T01:18:24.094Z,3.82
2023-03-27T01:19:24.081Z,4.46
2023-03-27T01:20:24.075Z,3.82
2023-03-27T01:21:24.070Z,3.17
2023-03-27T01:22:24.050Z,2.21
2023-03-27T01:23:35.978Z,4.46
2023-03-27T01:24:24.029Z,3.82
2023-03-27T01:25:24.013Z,3.82
2023-03-27T01:26:36.780Z,3.82
2023-03-27T01:27:23.998Z,5.75
2023-03-27T01:28:23.987Z,3.50
2023-03-27T01:29:23.982Z,5.11
2023-03-27T01:30:23.977Z,4.14
2023-03-27T01:31:24.179Z,5.43
2023-03-27T01:32:24.018Z,1.88
2023-03-27T01:33:23.927Z,-0.05
2023-03-27T01:34:23.963Z,6.07
2023-03-27T01:35:23.963Z,0.92
2023-03-27T01:36:23.940Z,2.53
2023-03-27T01:37:23.893Z,3.82
2023-03-27T01:38:23.894Z,6.72
2023-03-27T01:39:23.868Z,4.46
2023-03-27T01:40:23.870Z,3.50
2023-03-27T01:41:23.868Z,2.21
2023-03-27T01:42:23.849Z,3.82
2023-03-27T01:43:23.831Z,3.82
2023-03-27T01:44:23.823Z,6.40
2023-03-27T01:45:23.818Z,5.43
2023-03-27T01:46:23.849Z,4.14
2023-03-27T01:47:23.825Z,3.50
2023-03-27T01:48:23.784Z,1.88
2023-03-27T01:49:23.763Z,3.82
2023-03-27T01:50:23.811Z,3.82
2023-03-27T01:51:23.761Z,3.82
2023-03-27T01:52:23.743Z,3.82
2023-03-27T01:53:23.744Z,3.50
2023-03-27T01:54:23.728Z,5.75
2023-03-27T01:55:23.720Z,3.82
2023-03-27T01:56:23.723Z,3.17
2023-03-27T01:57:23.686Z,6.40
2023-03-27T01:58:23.704Z,4.14
2023-03-27T01:59:23.690Z,-0.05
2023-03-27T02:00:23.674Z,3.82
2023-03-27T02:01:23.693Z,3.17
2023-03-27T02:02:23.698Z,4.46
2023-03-27T02:03:23.635Z,1.88
2023-03-27T02:04:23.709Z,3.82
2023-03-27T02:05:23.608Z,3.50
2023-03-27T02:06:23.667Z,3.50
2023-03-27T02:07:23.581Z,5.43
2023-03-27T02:08:23.592Z,3.50
2023-03-27T02:09:23.573Z,3.50
2023-03-27T02:10:23.568Z,3.50
2023-03-27T02:11:23.570Z,3.17
2023-03-27T02:12:23.537Z,3.17
2023-03-27T02:13:23.526Z,3.50
2023-03-27T02:14:23.568Z,2.85
2023-03-27T02:15:25.577Z,-0.37
2023-03-27T02:16:23.615Z,2.85
2023-03-27T02:17:23.509Z,4.79
2023-03-27T02:18:23.480Z,5.11
2023-03-27T02:19:23.470Z,2.53
2023-03-27T02:20:23.468Z,4.46
2023-03-27T02:21:23.453Z,2.85
2023-03-27T02:22:38.231Z,3.17
2023-03-27T02:23:23.433Z,2.53
2023-03-27T02:24:23.423Z,1.24
2023-03-27T02:25:23.404Z,2.21
2023-03-27T02:26:23.403Z,3.17
2023-03-27T02:27:23.407Z,3.17
2023-03-27T02:28:23.386Z,4.14
2023-03-27T02:29:23.365Z,3.17
2023-03-27T02:30:23.372Z,3.50
2023-03-27T02:31:32.951Z,2.53
2023-03-27T02:32:23.551Z,5.11
2023-03-27T02:33:23.372Z,-1.02
2023-03-27T02:34:23.337Z,3.50
2023-03-27T02:35:23.345Z,1.88
2023-03-27T02:36:23.303Z,1.24
2023-03-27T02:37:23.316Z,-1.02
2023-03-27T02:38:23.287Z,3.50
2023-03-27T02:39:23.270Z,3.17
2023-03-27T02:40:23.271Z,3.50
2023-03-27T02:41:23.249Z,2.85
2023-03-27T02:42:23.348Z,2.53
2023-03-27T02:43:23.234Z,5.11
2023-03-27T02:44:23.225Z,3.17
2023-03-27T02:45:23.207Z,2.85
2023-03-27T02:46:23.243Z,2.85
2023-03-27T02:47:23.205Z,2.85
2023-03-27T02:48:23.209Z,2.53
2023-03-27T02:49:23.178Z,0.27
2023-03-27T02:50:23.173Z,6.07
2023-03-27T02:51:23.156Z,0.27
2023-03-27T02:52:23.191Z,5.11
2023-03-27T02:53:23.131Z,3.82
2023-03-27T02:54:23.133Z,5.11
2023-03-27T02:55:23.119Z,1.56
2023-03-27T02:56:23.116Z,2.53
2023-03-27T02:57:24.914Z,-0.05
2023-03-27T02:58:23.098Z,0.92
2023-03-27T02:59:23.074Z,0.27
2023-03-27T03:00:23.069Z,2.85
2023-03-27T03:01:23.093Z,-0.69
2023-03-27T03:02:23.333Z,2.85
2023-03-27T03:03:23.110Z,1.24
2023-03-27T03:04:23.033Z,2.21
2023-03-27T03:05:23.026Z,4.46
2023-03-27T03:06:23.016Z,2.53
2023-03-27T03:07:23.013Z,0.27
2023-03-27T03:08:23.002Z,2.53
2023-03-27T03:09:22.979Z,2.85
2023-03-27T03:10:22.976Z,2.53
2023-03-27T03:11:22.959Z,4.14
2023-03-27T03:12:23.040Z,2.21
2023-03-27T03:13:22.961Z,2.53
2023-03-27T03:14:22.933Z,3.82
2023-03-27T03:15:22.936Z,-0.05
2023-03-27T03:16:23.048Z,2.53
2023-03-27T03:17:22.965Z,2.53
2023-03-27T03:18:22.889Z,5.75
2023-03-27T03:19:22.883Z,2.85
2023-03-27T03:20:22.867Z,1.88
2023-03-27T03:21:22.869Z,2.21
2023-03-27T03:22:22.893Z,0.60
2023-03-27T03:23:22.847Z,2.21
2023-03-27T03:24:22.824Z,2.85
2023-03-27T03:25:22.830Z,2.21
2023-03-27T03:26:22.810Z,5.75
2023-03-27T03:27:22.849Z,2.85
2023-03-27T03:28:22.789Z,0.27
2023-03-27T03:29:22.783Z,-1.02
2023-03-27T03:30:22.792Z,-1.02
2023-03-27T03:31:22.811Z,0.60
2023-03-27T03:32:22.786Z,1.88
2023-03-27T03:33:22.763Z,2.53
2023-03-27T03:34:22.729Z,2.85
2023-03-27T03:35:22.743Z,1.88
2023-03-27T03:36:22.705Z,2.21
2023-03-27T03:37:22.762Z,1.88
2023-03-27T03:38:22.693Z,-1.02
2023-03-27T03:39:22.689Z,2.53
2023-03-27T03:40:22.668Z,-0.05
2023-03-27T03:41:22.665Z,3.50
2023-03-27T03:42:24.278Z,2.53
2023-03-27T03:43:22.652Z,1.56
2023-03-27T03:44:22.628Z,3.50
2023-03-27T03:45:22.670Z,2.21
2023-03-27T03:46:22.638Z,1.24
2023-03-27T03:47:22.628Z,1.56
2023-03-27T03:48:22.608Z,1.56
2023-03-27T03:49:22.589Z,1.56
2023-03-27T03:50:22.572Z,-0.37
2023-03-27T03:51:22.719Z,4.79
2023-03-27T03:52:22.577Z,1.56
2023-03-27T03:53:22.550Z,2.21
2023-03-27T03:54:22.544Z,1.88
2023-03-27T03:55:22.537Z,2.21
2023-03-27T03:56:22.512Z,1.24
2023-03-27T03:57:22.550Z,-1.02
2023-03-27T03:58:34.220Z,-2.30
2023-03-27T03:59:22.490Z,1.88
2023-03-27T04:00:22.468Z,1.24
2023-03-27T04:01:22.467Z,1.56
2023-03-27T04:02:22.593Z,-0.69
2023-03-27T04:03:22.519Z,1.88
2023-03-27T04:04:22.427Z,1.88
2023-03-27T04:05:22.424Z,1.88
2023-03-27T04:06:22.402Z,1.88
2023-03-27T04:07:22.429Z,0.60
2023-03-27T04:08:22.394Z,-1.02
2023-03-27T04:09:22.384Z,3.50
2023-03-27T04:10:22.367Z,5.43
2023-03-27T04:11:22.363Z,3.50
2023-03-27T04:12:22.346Z,-0.37
2023-03-27T04:13:22.359Z,2.21
2023-03-27T04:14:22.333Z,4.14
2023-03-27T04:15:22.324Z,2.53
2023-03-27T04:16:22.378Z,2.21
2023-03-27T04:17:22.414Z,0.60
2023-03-27T04:18:22.308Z,2.53
2023-03-27T04:19:22.281Z,-0.69
2023-03-27T04:20:22.260Z,-0.05
2023-03-27T04:21:22.297Z,1.88
2023-03-27T04:22:22.259Z,3.17
2023-03-27T04:23:22.248Z,3.17
2023-03-27T04:24:22.228Z,2.53
2023-03-27T04:25:22.167Z,3.17
2023-03-27T04:26:22.245Z,1.56
2023-03-27T04:27:22.240Z,0.92
2023-03-27T04:28:22.189Z,1.24
2023-03-27T04:29:22.180Z,0.92
2023-03-27T04:30:22.120Z,-1.34
2023-03-27T04:31:22.142Z,5.11
2023-03-27T04:32:22.137Z,1.24
2023-03-27T04:33:22.097Z,-0.05
2023-03-27T04:34:22.128Z,2.53
2023-03-27T04:35:22.130Z,1.24
2023-03-27T04:36:22.075Z,-0.05
2023-03-27T04:37:23.588Z,1.88
2023-03-27T04:38:22.034Z,-1.34
2023-03-27T04:39:22.062Z,1.88
2023-03-27T04:40:22.026Z,1.88
2023-03-27T04:41:22.011Z,2.85
2023-03-27T04:42:22.008Z,1.24
2023-03-27T04:43:21.990Z,-0.37
2023-03-27T04:44:21.984Z,5.11
2023-03-27T04:45:21.975Z,4.14
2023-03-27T04:46:22.018Z,-0.69
2023-03-27T04:47:22.005Z,0.92
2023-03-27T04:48:21.953Z,1.56
2023-03-27T04:49:21.953Z,0.27
2023-03-27T04:50:21.917Z,1.56
2023-03-27T04:51:21.918Z,1.24
2023-03-27T04:52:21.916Z,4.46
2023-03-27T04:53:21.897Z,-0.37
2023-03-27T04:54:21.881Z,-1.34
2023-03-27T04:55:21.882Z,1.88
2023-03-27T04:56:21.862Z,1.56
2023-03-27T04:57:21.956Z,6.40
2023-03-27T04:58:21.839Z,1.88
2023-03-27T04:59:21.840Z,4.79
2023-03-27T05:00:21.824Z,3.50
2023-03-27T05:01:21.838Z,1.24
2023-03-27T05:02:21.878Z,1.24
2023-03-27T05:03:21.846Z,1.56
2023-03-27T05:04:21.789Z,-2.30
2023-03-27T05:05:21.780Z,2.53
2023-03-27T05:06:21.767Z,1.56
2023-03-27T05:07:21.771Z,1.56
2023-03-27T05:08:21.742Z,1.56
2023-03-27T05:09:21.740Z,1.88
2023-03-27T05:10:22.225Z,4.79
2023-03-27T05:11:21.727Z,1.88
2023-03-27T05:12:21.767Z,2.21
2023-03-27T05:13:21.694Z,-0.37
2023-03-27T05:14:21.708Z,1.56
2023-03-27T05:15:21.683Z,4.46
2023-03-27T05:16:21.710Z,1.88
2023-03-27T05:17:21.719Z,1.24
2023-03-27T05:18:21.635Z,1.88
2023-03-27T05:19:22.137Z,-1.34
2023-03-27T05:20:21.618Z,-1.02
2023-03-27T05:21:21.610Z,1.24
2023-03-27T05:22:21.607Z,2.85
2023-03-27T05:23:21.592Z,3.17
2023-03-27T05:24:21.590Z,1.88
2023-03-27T05:25:21.585Z,1.24
2023-03-27T05:26:21.558Z,1.88
2023-03-27T05:27:21.585Z,-0.05
2023-03-27T05:28:21.540Z,2.21
2023-03-27T05:29:21.533Z,-0.05
2023-03-27T05:30:21.525Z,1.56
2023-03-27T05:31:21.530Z,-2.95
2023-03-27T05:32:21.525Z,-0.37
2023-03-27T05:33:21.503Z,-0.69
2023-03-27T05:34:21.498Z,1.88
2023-03-27T05:35:21.545Z,1.56
2023-03-27T05:36:21.455Z,5.11
2023-03-27T05:37:21.447Z,1.88
2023-03-27T05:38:21.473Z,-0.05
2023-03-27T05:39:21.448Z,2.53
2023-03-27T05:40:21.467Z,1.88
2023-03-27T05:41:21.449Z,-1.66
2023-03-27T05:42:21.425Z,4.14
2023-03-27T05:43:21.413Z,1.88
2023-03-27T05:44:21.388Z,2.53
2023-03-27T05:45:21.408Z,2.53
2023-03-27T05:46:21.806Z,2.53
2023-03-27T05:47:21.360Z,0.60
2023-03-27T05:48:21.344Z,2.85
2023-03-27T05:49:21.335Z,2.21
2023-03-27T05:50:21.341Z,2.53
2023-03-27T05:51:21.323Z,2.85
2023-03-27T05:52:21.304Z,7.04
2023-03-27T05:53:28.084Z,6.40
2023-03-27T05:54:21.319Z,-0.05
2023-03-27T05:55:21.302Z,3.17
2023-03-27T05:56:21.262Z,-0.37
2023-03-27T05:57:21.301Z,2.21
2023-03-27T05:58:21.252Z,2.53
2023-03-27T05:59:21.240Z,3.82
2023-03-27T06:00:21.240Z,1.88
2023-03-27T06:01:21.227Z,4.79
2023-03-27T06:02:21.671Z,0.92
2023-03-27T06:03:22.042Z,3.50
2023-03-27T06:04:21.229Z,5.75
2023-03-27T06:05:21.172Z,1.56
2023-03-27T06:06:21.163Z,7.04
2023-03-27T06:07:21.170Z,2.53
2023-03-27T06:08:21.167Z,3.17
2023-03-27T06:09:21.132Z,0.27
2023-03-27T06:10:21.111Z,3.17
2023-03-27T06:11:21.125Z,3.17
2023-03-27T06:12:21.098Z,3.82
2023-03-27T06:13:21.110Z,3.50
2023-03-27T06:14:21.076Z,3.82
2023-03-27T06:15:21.087Z,3.50
2023-03-27T06:16:21.159Z,1.88
2023-03-27T06:17:21.123Z,0.27
2023-03-27T06:18:21.054Z,3.50
2023-03-27T06:19:21.038Z,2.85
2023-03-27T06:20:21.012Z,6.40
2023-03-27T06:21:21.022Z,5.75
2023-03-27T06:22:21.024Z,7.04
2023-03-27T06:23:21.563Z,4.14
2023-03-27T06:24:21.005Z,3.50
2023-03-27T06:25:20.989Z,3.50
2023-03-27T06:26:20.951Z,3.82
2023-03-27T06:27:20.958Z,-0.69
2023-03-27T06:28:20.944Z,5.43
2023-03-27T06:29:20.926Z,1.56
2023-03-27T06:30:20.979Z,4.79
2023-03-27T06:31:20.939Z,4.46
2023-03-27T06:32:20.967Z,4.14
2023-03-27T06:33:20.891Z,4.46
2023-03-27T06:34:20.879Z,1.24
2023-03-27T06:35:20.878Z,3.50
2023-03-27T06:36:20.902Z,5.43
2023-03-27T06:37:20.858Z,2.21
2023-03-27T06:38:20.915Z,6.07
2023-03-27T06:39:20.832Z,5.75
2023-03-27T06:40:20.820Z,3.82
2023-03-27T06:41:20.819Z,5.11
2023-03-27T06:42:20.787Z,4.14
2023-03-27T06:43:20.822Z,6.72
2023-03-27T06:44:20.773Z,9.30
2023-03-27T06:45:20.772Z,4.46
2023-03-27T06:46:20.771Z,6.40
2023-03-27T06:47:20.862Z,6.40
2023-03-27T06:48:22.443Z,6.72
2023-03-27T06:49:20.751Z,6.40
2023-03-27T06:50:20.707Z,6.72
2023-03-27T06:51:20.713Z,6.40
2023-03-27T06:52:20.687Z,6.40
2023-03-27T06:54:20.672Z,4.46
2023-03-27T06:55:20.670Z,6.07
2023-03-27T06:56:20.655Z,8.01
2023-03-27T06:57:20.721Z,6.72
2023-03-27T06:58:20.861Z,6.40
2023-03-27T06:59:20.617Z,8.01
2023-03-27T07:00:20.618Z,6.72
2023-03-27T07:01:20.640Z,6.72
2023-03-27T07:02:20.593Z,6.72
2023-03-27T07:03:20.655Z,6.72
2023-03-27T07:04:20.591Z,6.07
2023-03-27T07:05:20.590Z,5.11
2023-03-27T07:06:20.545Z,7.36
2023-03-27T07:07:20.535Z,7.36
2023-03-27T07:08:24.950Z,4.14
2023-03-27T07:09:20.518Z,7.04
2023-03-27T07:10:20.495Z,7.04
2023-03-27T07:11:20.497Z,9.94
2023-03-27T07:12:20.480Z,6.72
2023-03-27T07:13:20.500Z,5.43
2023-03-27T07:14:20.458Z,6.72
2023-03-27T07:15:20.453Z,7.36
2023-03-27T07:16:20.465Z,7.04
2023-03-27T07:17:20.428Z,6.40
2023-03-27T07:18:20.461Z,6.07
2023-03-27T07:19:20.451Z,7.36
2023-03-27T07:20:20.406Z,6.07
2023-03-27T07:21:20.383Z,6.40
2023-03-27T07:22:20.356Z,7.36
2023-03-27T07:23:20.413Z,6.07
2023-03-27T07:24:20.351Z,6.72
2023-03-27T07:25:20.382Z,8.33
2023-03-27T07:26:20.325Z,6.72
2023-03-27T07:27:20.338Z,6.40
2023-03-27T07:28:20.322Z,5.75
2023-03-27T07:29:20.302Z,4.46
2023-03-27T07:30:20.290Z,5.43
2023-03-27T07:31:36.370Z,5.11
2023-03-27T07:32:34.178Z,5.43
2023-03-27T07:33:20.335Z,6.40
2023-03-27T07:34:20.304Z,6.40
2023-03-27T07:35:20.299Z,4.14
2023-03-27T07:36:20.222Z,5.75
2023-03-27T07:37:20.216Z,6.72
2023-03-27T07:38:20.225Z,9.62
2023-03-27T07:39:20.199Z,11.23
2023-03-27T07:40:24.139Z,5.43
2023-03-27T07:41:20.174Z,8.01
2023-03-27T07:42:20.180Z,9.30
2023-03-27T07:43:20.171Z,8.97
2023-03-27T07:44:20.171Z,8.97
2023-03-27T07:45:20.130Z,13.49
2023-03-27T07:46:20.156Z,8.97
2023-03-27T07:47:20.136Z,12.20
2023-03-27T07:48:20.114Z,9.62
2023-03-27T07:49:20.324Z,10.59
2023-03-27T07:50:20.087Z,11.23
2023-03-27T07:51:20.073Z,10.26
2023-03-27T07:52:20.060Z,11.87
2023-03-27T07:53:32.664Z,12.84
2023-03-27T07:54:20.050Z,13.49
2023-03-27T07:55:20.035Z,13.16
2023-03-27T07:56:20.020Z,14.78
2023-03-27T07:57:20.158Z,12.52
2023-03-27T07:58:20.107Z,11.87
2023-03-27T07:59:19.981Z,12.84
2023-03-27T08:00:19.981Z,12.84
2023-03-27T08:01:19.963Z,12.52
2023-03-27T08:02:19.974Z,14.13
2023-03-27T08:03:20.170Z,14.13
2023-03-27T08:04:20.047Z,16.39
2023-03-27T08:05:19.933Z,13.16
2023-03-27T08:06:19.951Z,14.45
2023-03-27T08:07:19.900Z,14.78
2023-03-27T08:08:19.906Z,16.39
2023-03-27T08:09:19.920Z,15.42
2023-03-27T08:10:19.891Z,15.74
2023-03-27T08:11:30.324Z,14.13
2023-03-27T08:12:19.853Z,15.10
2023-03-27T08:13:19.845Z,17.68
2023-03-27T08:14:19.846Z,16.71
2023-03-27T08:15:19.812Z,16.39
2023-03-27T08:16:19.842Z,17.35
2023-03-27T08:17:21.906Z,17.03
2023-03-27T08:18:19.864Z,17.03
2023-03-27T08:19:19.793Z,17.68
2023-03-27T08:20:19.795Z,18.00
2023-03-27T08:21:19.757Z,18.00
2023-03-27T08:22:19.749Z,17.68
2023-03-27T08:23:19.733Z,18.64
2023-03-27T08:24:19.739Z,17.03
2023-03-27T08:25:19.731Z,20.25
2023-03-27T08:26:19.714Z,17.35
2023-03-27T08:27:19.691Z,18.00
2023-03-27T08:28:19.678Z,17.68
2023-03-27T08:29:19.685Z,17.03
2023-03-27T08:30:19.664Z,17.35
2023-03-27T08:31:19.713Z,14.13
2023-03-27T08:32:19.639Z,18.64
2023-03-27T08:33:19.632Z,18.00
2023-03-27T08:34:19.698Z,17.35
2023-03-27T08:35:19.633Z,17.68
2023-03-27T08:36:19.604Z,18.32
2023-03-27T08:37:19.580Z,19.29
2023-03-27T08:38:26.031Z,18.96
2023-03-27T08:39:19.583Z,18.32
2023-03-27T08:40:19.560Z,19.61
2023-03-27T08:41:19.539Z,19.61
2023-03-27T08:42:19.584Z,20.58
2023-03-27T08:43:19.532Z,18.32
2023-03-27T08:44:19.531Z,18.32
2023-03-27T08:45:19.506Z,18.64
2023-03-27T08:46:19.541Z,18.32
2023-03-27T08:47:19.501Z,17.68
2023-03-27T08:48:21.194Z,15.74
2023-03-27T08:49:19.478Z,16.39
2023-03-27T08:50:19.497Z,16.71
2023-03-27T08:51:19.438Z,14.13
2023-03-27T08:52:19.439Z,16.71
2023-03-27T08:53:19.429Z,16.06
2023-03-27T08:54:19.450Z,14.78
2023-03-27T08:55:19.416Z,15.74
2023-03-27T08:56:19.421Z,16.39
2023-03-27T08:57:19.443Z,17.68
2023-03-27T08:58:19.414Z,16.71
2023-03-27T08:59:19.402Z,18.96
2023-03-27T09:00:19.393Z,16.71
2023-03-27T09:01:19.369Z,17.68
2023-03-27T09:02:19.370Z,16.71
2023-03-27T09:03:19.448Z,18.00
2023-03-27T09:04:19.355Z,19.29
2023-03-27T09:05:19.294Z,18.64
2023-03-27T09:06:19.289Z,18.64
2023-03-27T09:07:19.343Z,16.71
2023-03-27T09:08:19.272Z,19.29
2023-03-27T09:09:19.277Z,16.71
2023-03-27T09:10:19.340Z,18.64
2023-03-27T09:11:21.583Z,17.68
2023-03-27T09:12:19.233Z,17.03
2023-03-27T09:13:19.218Z,17.03
2023-03-27T09:14:19.230Z,15.10
2023-03-27T09:15:19.264Z,14.13
2023-03-27T09:16:19.261Z,13.81
2023-03-27T09:17:19.472Z,14.45
2023-03-27T09:18:19.165Z,13.16
2023-03-27T09:19:19.173Z,14.45
2023-03-27T09:20:19.218Z,11.55
2023-03-27T09:21:19.189Z,12.52
2023-03-27T09:22:19.237Z,10.91
2023-03-27T09:23:21.070Z,12.84
2023-03-27T09:24:19.123Z,9.30
2023-03-27T09:25:19.101Z,11.55
2023-03-27T09:26:19.093Z,11.87
2023-03-27T09:27:19.068Z,11.23
2023-03-27T09:28:19.060Z,10.59
2023-03-27T09:29:20.032Z,10.26
2023-03-27T09:30:19.040Z,11.55
2023-03-27T09:31:19.045Z,11.87
2023-03-27T09:32:19.016Z,12.52
2023-03-27T09:33:19.002Z,11.87
2023-03-27T09:34:19.040Z,10.59
2023-03-27T09:35:19.025Z,13.49
2023-03-27T09:36:18.978Z,11.87
2023-03-27T09:37:18.958Z,11.55
2023-03-27T09:38:18.952Z,11.23
2023-03-27T09:39:19.181Z,10.91
2023-03-27T09:40:18.944Z,10.91
2023-03-27T09:41:18.910Z,12.20
2023-03-27T09:42:18.917Z,12.20
2023-03-27T09:43:18.980Z,9.62
2023-03-27T09:44:18.949Z,9.62
2023-03-27T09:45:18.873Z,9.30
2023-03-27T09:46:18.912Z,9.62
2023-03-27T09:47:18.888Z,9.62
2023-03-27T09:48:18.866Z,9.62
2023-03-27T09:49:18.857Z,10.59
2023-03-27T09:50:18.838Z,8.65
2023-03-27T09:51:18.808Z,8.97
2023-03-27T09:52:18.817Z,9.30
2023-03-27T09:53:18.807Z,8.33
2023-03-27T09:54:18.806Z,10.91
2023-03-27T09:55:18.768Z,7.69
2023-03-27T09:56:18.775Z,7.36
2023-03-27T09:57:18.801Z,9.94
2023-03-27T09:58:18.800Z,8.01
2023-03-27T09:59:18.723Z,8.01
2023-03-27T10:00:18.806Z,6.72
2023-03-27T10:01:18.732Z,10.26
2023-03-27T10:02:18.715Z,9.62
2023-03-27T10:03:18.830Z,8.97
2023-03-27T10:04:19.177Z,9.30
2023-03-27T10:05:18.663Z,9.30
2023-03-27T10:06:18.716Z,11.23
2023-03-27T10:07:18.722Z,13.81
2023-03-27T10:08:18.648Z,12.20
2023-03-27T10:09:18.647Z,12.20
2023-03-27T10:10:18.625Z,11.55
2023-03-27T10:11:18.609Z,11.87
2023-03-27T10:12:18.615Z,11.23
2023-03-27T10:13:18.599Z,11.23
2023-03-27T10:14:18.634Z,9.62
2023-03-27T10:15:18.568Z,10.59
2023-03-27T10:16:18.662Z,11.55
2023-03-27T10:17:18.550Z,12.20
2023-03-27T10:18:18.543Z,13.49
2023-03-27T10:19:18.532Z,14.45
2023-03-27T10:20:18.518Z,15.74
2023-03-27T10:21:18.532Z,15.42
2023-03-27T10:22:18.503Z,15.74
2023-03-27T10:23:18.522Z,16.39
2023-03-27T10:24:18.489Z,15.10
2023-03-27T10:25:18.481Z,17.68
2023-03-27T10:26:18.466Z,15.10
2023-03-27T10:27:18.440Z,13.81
2023-03-27T10:28:18.433Z,13.81
2023-03-27T10:29:18.477Z,12.20
2023-03-27T10:30:18.423Z,13.16
2023-03-27T10:31:18.437Z,13.49
2023-03-27T10:32:18.390Z,11.23
2023-03-27T10:33:18.448Z,10.26
2023-03-27T10:34:18.409Z,12.20
2023-03-27T10:35:18.410Z,10.26
2023-03-27T10:36:18.350Z,9.62
2023-03-27T10:37:18.334Z,9.94
2023-03-27T10:38:18.333Z,11.23
2023-03-27T10:39:18.337Z,8.01
2023-03-27T10:40:18.367Z,10.26
2023-03-27T10:41:28.075Z,12.20
2023-03-27T10:42:18.526Z,12.84
2023-03-27T10:43:18.335Z,15.10
2023-03-27T10:44:18.764Z,13.49
2023-03-27T10:45:18.291Z,13.81
2023-03-27T10:46:18.357Z,14.78
2023-03-27T10:47:18.251Z,9.30
2023-03-27T10:48:18.218Z,11.87
2023-03-27T10:49:18.372Z,9.94
2023-03-27T10:50:18.206Z,11.87
2023-03-27T10:51:18.206Z,8.97
2023-03-27T10:52:18.180Z,10.26
2023-03-27T10:53:18.269Z,10.59
2023-03-27T10:54:18.223Z,7.36
2023-03-27T10:55:18.156Z,10.59
2023-03-27T10:56:18.178Z,10.26
2023-03-27T10:57:19.469Z,8.33
2023-03-27T10:58:18.114Z,6.40
2023-03-27T10:59:25.475Z,8.97
2023-03-27T11:00:18.169Z,6.07
2023-03-27T11:01:18.318Z,5.43
2023-03-27T11:02:18.170Z,6.07
2023-03-27T11:03:18.225Z,5.11
2023-03-27T11:04:19.331Z,5.43
2023-03-27T11:05:18.180Z,5.43
2023-03-27T11:06:18.194Z,5.11
2023-03-27T11:07:18.028Z,6.07
2023-03-27T11:08:18.013Z,5.43
2023-03-27T11:09:18.115Z,4.14
2023-03-27T11:10:18.056Z,5.43
2023-03-27T11:11:18.113Z,3.50
2023-03-27T11:12:18.008Z,6.40
2023-03-27T11:13:18.099Z,6.07
2023-03-27T11:14:18.058Z,7.36
2023-03-27T11:15:17.958Z,3.82
2023-03-27T11:16:17.959Z,7.36
2023-03-27T11:17:17.962Z,5.43
2023-03-27T11:18:17.909Z,3.82
2023-03-27T11:19:17.890Z,3.82
2023-03-27T11:20:18.166Z,0.92
2023-03-27T11:21:17.921Z,2.53
2023-03-27T11:22:17.865Z,3.82
2023-03-27T11:23:17.857Z,0.60
2023-03-27T11:24:17.878Z,4.79
2023-03-27T11:25:17.832Z,6.72
2023-03-27T11:26:17.827Z,5.75
2023-03-27T11:27:17.809Z,9.30
2023-03-27T11:28:17.806Z,8.33
2023-03-27T11:29:17.818Z,9.62
2023-03-27T11:30:17.785Z,12.52
2023-03-27T11:31:17.859Z,12.20
2023-03-27T11:32:17.772Z,13.49
2023-03-27T11:33:17.749Z,19.29
2023-03-27T11:34:29.530Z,14.45
2023-03-27T11:35:17.726Z,16.06
2023-03-27T11:36:18.079Z,16.71
2023-03-27T11:37:17.707Z,18.32
2023-03-27T11:38:17.700Z,16.71
2023-03-27T11:39:17.782Z,17.68
2023-03-27T11:40:17.688Z,17.35
2023-03-27T11:41:17.670Z,20.58
2023-03-27T11:42:17.703Z,20.58
2023-03-27T11:43:17.650Z,19.93
2023-03-27T11:44:17.648Z,18.64
2023-03-27T11:45:17.649Z,18.96
2023-03-27T11:46:17.644Z,18.64
2023-03-27T11:47:17.615Z,17.35
2023-03-27T11:48:17.696Z,14.13
2023-03-27T11:49:17.594Z,12.20
2023-03-27T11:50:17.613Z,14.45
2023-03-27T11:51:17.591Z,14.45
2023-03-27T11:52:17.567Z,13.81
2023-03-27T11:53:17.558Z,14.45
2023-03-27T11:54:17.531Z,12.84
2023-03-27T11:55:17.528Z,8.97
2023-03-27T11:56:17.533Z,12.52
2023-03-27T11:57:17.537Z,11.23
2023-03-27T11:58:17.525Z,13.49
2023-03-27T11:59:17.502Z,11.87
2023-03-27T12:00:17.512Z,12.20
2023-03-27T12:01:17.914Z,12.52
2023-03-27T12:02:17.543Z,14.13
2023-03-27T12:03:17.567Z,11.23
2023-03-27T12:04:17.470Z,11.23
2023-03-27T12:05:17.470Z,9.30
2023-03-27T12:06:17.418Z,10.59
2023-03-27T12:07:26.236Z,10.59
2023-03-27T12:08:17.420Z,10.26
2023-03-27T12:09:17.391Z,10.26
2023-03-27T12:10:17.401Z,9.62
2023-03-27T12:11:17.370Z,10.26
2023-03-27T12:12:17.358Z,10.26
2023-03-27T12:13:17.348Z,7.36
2023-03-27T12:14:18.523Z,9.62
2023-03-27T12:15:17.349Z,11.55
2023-03-27T12:16:17.361Z,9.62
2023-03-27T12:17:17.314Z,7.36
2023-03-27T12:18:17.288Z,7.36
2023-03-27T12:19:27.624Z,9.62
2023-03-27T12:20:17.551Z,9.30
2023-03-27T12:21:17.258Z,5.43
2023-03-27T12:22:23.598Z,9.30
2023-03-27T12:23:17.245Z,9.30
2023-03-27T12:24:17.242Z,12.20
2023-03-27T12:25:17.302Z,8.01
2023-03-27T12:26:17.210Z,11.55
2023-03-27T12:27:17.194Z,8.97
2023-03-27T12:28:22.217Z,8.33
2023-03-27T12:29:22.652Z,9.94
2023-03-27T12:30:17.181Z,8.97
2023-03-27T12:31:17.235Z,8.33
2023-03-27T12:32:17.151Z,8.97
2023-03-27T12:33:17.179Z,11.23
2023-03-27T12:34:17.129Z,8.97
2023-03-27T12:35:22.177Z,6.72
2023-03-27T12:36:17.126Z,9.30
2023-03-27T12:37:17.113Z,8.97
2023-03-27T12:38:17.101Z,9.62
2023-03-27T12:39:17.160Z,9.30
2023-03-27T12:40:17.113Z,9.62
2023-03-27T12:41:17.077Z,11.87
2023-03-27T12:42:17.038Z,13.49
2023-03-27T12:43:17.081Z,9.62
2023-03-27T12:44:17.038Z,10.26
2023-03-27T12:45:17.037Z,9.62
2023-03-27T12:46:17.058Z,9.30
2023-03-27T12:47:17.000Z,10.91
2023-03-27T12:48:17.011Z,10.59
2023-03-27T12:49:16.974Z,11.23
2023-03-27T12:50:17.000Z,9.30
2023-03-27T12:51:16.962Z,12.20
2023-03-27T12:52:16.934Z,9.94
2023-03-27T12:53:16.947Z,12.52
2023-03-27T12:54:16.926Z,8.97
2023-03-27T12:55:16.903Z,10.26
2023-03-27T12:56:16.894Z,10.59
2023-03-27T12:57:16.952Z,6.40
2023-03-27T12:58:16.973Z,10.59
2023-03-27T12:59:16.863Z,11.23
2023-03-27T13:00:16.846Z,12.84
2023-03-27T13:01:16.871Z,10.26
2023-03-27T13:02:16.896Z,9.94
2023-03-27T13:03:16.997Z,8.97
2023-03-27T13:04:16.803Z,9.62
2023-03-27T13:05:26.830Z,9.94
2023-03-27T13:06:16.789Z,9.30
2023-03-27T13:07:16.797Z,9.62
2023-03-27T13:08:16.792Z,9.30
2023-03-27T13:09:16.765Z,11.23
2023-03-27T13:10:17.352Z,9.62